sensor_id;sensor_type;location;lat;lon;timestamp;pressure;altitude;pressure_sealevel;temperature
61977;BMP280;45905;50.570;10.428;2023-04-23T00:00:07;97102.09;;;15.77
61977;BMP280;45905;50.570;10.428;2023-04-23T00:02:39;97095.41;;;15.76
61977;BMP280;45905;50.570;10.428;2023-04-23T00:05:11;97096.06;;;15.72
61977;BMP280;45905;50.570;10.428;2023-04-23T00:07:40;97099.78;;;15.69
61977;BMP280;45905;50.570;10.428;2023-04-23T00:10:08;97098.22;;;15.68
61977;BMP280;45905;50.570;10.428;2023-04-23T00:12:36;97092.31;;;15.68
61977;BMP280;45905;50.570;10.428;2023-04-23T00:15:06;97091.19;;;15.64
61977;BMP280;45905;50.570;10.428;2023-04-23T00:17:33;97090.59;;;15.62
61977;BMP280;45905;50.570;10.428;2023-04-23T00:20:00;97084.91;;;15.60
61977;BMP280;45905;50.570;10.428;2023-04-23T00:22:28;97086.53;;;15.55
61977;BMP280;45905;50.570;10.428;2023-04-23T00:24:55;97086.34;;;15.50
61977;BMP280;45905;50.570;10.428;2023-04-23T00:27:22;97080.88;;;15.46
61977;BMP280;45905;50.570;10.428;2023-04-23T00:29:49;97077.97;;;15.37
61977;BMP280;45905;50.570;10.428;2023-04-23T00:32:17;97070.31;;;15.37
61977;BMP280;45905;50.570;10.428;2023-04-23T00:34:44;97072.88;;;15.37
61977;BMP280;45905;50.570;10.428;2023-04-23T00:37:14;97075.22;;;15.38
61977;BMP280;45905;50.570;10.428;2023-04-23T00:39:43;97077.38;;;15.35
61977;BMP280;45905;50.570;10.428;2023-04-23T00:42:10;97079.34;;;15.33
61977;BMP280;45905;50.570;10.428;2023-04-23T00:44:39;97072.91;;;15.30
61977;BMP280;45905;50.570;10.428;2023-04-23T00:47:09;97071.94;;;15.25
61977;BMP280;45905;50.570;10.428;2023-04-23T00:49:37;97070.97;;;15.26
61977;BMP280;45905;50.570;10.428;2023-04-23T00:52:05;97071.16;;;15.25
61977;BMP280;45905;50.570;10.428;2023-04-23T00:54:33;97073.75;;;15.18
61977;BMP280;45905;50.570;10.428;2023-04-23T00:57:00;97075.91;;;15.15
61977;BMP280;45905;50.570;10.428;2023-04-23T00:59:30;97064.75;;;15.09
61977;BMP280;45905;50.570;10.428;2023-04-23T01:01:58;97065.16;;;15.07
61977;BMP280;45905;50.570;10.428;2023-04-23T01:04:28;97062.03;;;15.05
61977;BMP280;45905;50.570;10.428;2023-04-23T01:06:58;97065.97;;;15.01
61977;BMP280;45905;50.570;10.428;2023-04-23T01:09:26;97063.22;;;15.02
61977;BMP280;45905;50.570;10.428;2023-04-23T01:11:59;97062.03;;;15.05
61977;BMP280;45905;50.570;10.428;2023-04-23T01:14:28;97056.16;;;15.04
61977;BMP280;45905;50.570;10.428;2023-04-23T01:16:55;97063.56;;;15.06
61977;BMP280;45905;50.570;10.428;2023-04-23T01:19:24;97064.97;;;15.02
61977;BMP280;45905;50.570;10.428;2023-04-23T01:21:52;97062.81;;;14.99
61977;BMP280;45905;50.570;10.428;2023-04-23T01:24:20;97058.50;;;14.99
61977;BMP280;45905;50.570;10.428;2023-04-23T01:26:47;97061.06;;;14.99
61977;BMP280;45905;50.570;10.428;2023-04-23T01:29:14;97062.81;;;14.99
61977;BMP280;45905;50.570;10.428;2023-04-23T01:31:42;97070.47;;;14.92
61977;BMP280;45905;50.570;10.428;2023-04-23T01:34:10;97068.94;;;14.85
61977;BMP280;45905;50.570;10.428;2023-04-23T01:36:37;97066.78;;;14.82
61977;BMP280;45905;50.570;10.428;2023-04-23T01:39:05;97072.47;;;14.78
61977;BMP280;45905;50.570;10.428;2023-04-23T01:41:33;97061.09;;;14.74
61977;BMP280;45905;50.570;10.428;2023-04-23T01:44:01;97060.16;;;14.69
61977;BMP280;45905;50.570;10.428;2023-04-23T01:46:29;97064.06;;;14.65
61977;BMP280;45905;50.570;10.428;2023-04-23T01:48:56;97062.31;;;14.65
61977;BMP280;45905;50.570;10.428;2023-04-23T01:51:25;97068.41;;;14.58
61977;BMP280;45905;50.570;10.428;2023-04-23T01:53:52;97059.00;;;14.52
61977;BMP280;45905;50.570;10.428;2023-04-23T01:56:26;97060.56;;;14.47
61977;BMP280;45905;50.570;10.428;2023-04-23T01:58:54;97054.88;;;14.45
61977;BMP280;45905;50.570;10.428;2023-04-23T02:01:22;97052.72;;;14.48
61977;BMP280;45905;50.570;10.428;2023-04-23T02:03:50;97064.50;;;14.49
61977;BMP280;45905;50.570;10.428;2023-04-23T02:06:17;97059.41;;;14.49
61977;BMP280;45905;50.570;10.428;2023-04-23T02:08:45;97059.19;;;14.50
61977;BMP280;45905;50.570;10.428;2023-04-23T02:11:13;97065.69;;;14.53
61977;BMP280;45905;50.570;10.428;2023-04-23T02:13:40;97062.91;;;14.54
61977;BMP280;45905;50.570;10.428;2023-04-23T02:16:07;97057.41;;;14.57
61977;BMP280;45905;50.570;10.428;2023-04-23T02:18:34;97062.31;;;14.59
61977;BMP280;45905;50.570;10.428;2023-04-23T02:21:02;97061.72;;;14.57
61977;BMP280;45905;50.570;10.428;2023-04-23T02:23:30;97056.25;;;14.47
61977;BMP280;45905;50.570;10.428;2023-04-23T02:25:57;97063.13;;;14.40
61977;BMP280;45905;50.570;10.428;2023-04-23T02:28:24;97065.28;;;14.37
61977;BMP280;45905;50.570;10.428;2023-04-23T02:30:51;97063.53;;;14.37
61977;BMP280;45905;50.570;10.428;2023-04-23T02:33:18;97059.41;;;14.36
61977;BMP280;45905;50.570;10.428;2023-04-23T02:35:46;97062.97;;;14.35
61977;BMP280;45905;50.570;10.428;2023-04-23T02:38:13;97062.97;;;14.35
61977;BMP280;45905;50.570;10.428;2023-04-23T02:40:40;97061.38;;;14.34
61977;BMP280;45905;50.570;10.428;2023-04-23T02:43:07;97069.81;;;14.35
61977;BMP280;45905;50.570;10.428;2023-04-23T02:45:35;97060.19;;;14.31
61977;BMP280;45905;50.570;10.428;2023-04-23T02:48:02;97065.28;;;14.31
61977;BMP280;45905;50.570;10.428;2023-04-23T02:50:30;97058.63;;;14.30
61977;BMP280;45905;50.570;10.428;2023-04-23T02:52:57;97070.00;;;14.27
61977;BMP280;45905;50.570;10.428;2023-04-23T02:55:24;97073.53;;;14.20
61977;BMP280;45905;50.570;10.428;2023-04-23T02:57:51;97069.22;;;14.14
61977;BMP280;45905;50.570;10.428;2023-04-23T03:00:19;97067.66;;;14.13
61977;BMP280;45905;50.570;10.428;2023-04-23T03:02:46;97072.34;;;14.10
61977;BMP280;45905;50.570;10.428;2023-04-23T03:05:13;97072.94;;;14.12
61977;BMP280;45905;50.570;10.428;2023-04-23T03:07:41;97072.34;;;14.10
61977;BMP280;45905;50.570;10.428;2023-04-23T03:10:08;97077.63;;;14.02
61977;BMP280;45905;50.570;10.428;2023-04-23T03:12:35;97071.16;;;13.93
61977;BMP280;45905;50.570;10.428;2023-04-23T03:15:03;97071.38;;;13.92
61977;BMP280;45905;50.570;10.428;2023-04-23T03:17:33;97077.44;;;13.91
61977;BMP280;45905;50.570;10.428;2023-04-23T03:20:00;97074.91;;;13.91
61977;BMP280;45905;50.570;10.428;2023-04-23T03:22:29;97080.16;;;13.83
61977;BMP280;45905;50.570;10.428;2023-04-23T03:24:56;97085.03;;;13.78
61977;BMP280;45905;50.570;10.428;2023-04-23T03:27:23;97081.50;;;13.79
61977;BMP280;45905;50.570;10.428;2023-04-23T03:29:50;97085.63;;;13.80
61977;BMP280;45905;50.570;10.428;2023-04-23T03:32:17;97083.06;;;13.80
61977;BMP280;45905;50.570;10.428;2023-04-23T03:34:44;97081.69;;;13.71
61977;BMP280;45905;50.570;10.428;2023-04-23T03:37:12;97093.81;;;13.69
61977;BMP280;45905;50.570;10.428;2023-04-23T03:39:40;97097.34;;;13.68
61977;BMP280;45905;50.570;10.428;2023-04-23T03:42:07;97091.66;;;13.66
61977;BMP280;45905;50.570;10.428;2023-04-23T03:44:36;97095.34;;;13.57
61977;BMP280;45905;50.570;10.428;2023-04-23T03:47:04;97084.59;;;13.55
61977;BMP280;45905;50.570;10.428;2023-04-23T03:49:32;97084.59;;;13.55
61977;BMP280;45905;50.570;10.428;2023-04-23T03:51:59;97092.59;;;13.53
61977;BMP280;45905;50.570;10.428;2023-04-23T03:54:28;97090.44;;;13.50
61977;BMP280;45905;50.570;10.428;2023-04-23T03:57:25;97091.81;;;13.52
61977;BMP280;45905;50.570;10.428;2023-04-23T04:00:04;97088.31;;;13.53
61977;BMP280;45905;50.570;10.428;2023-04-23T04:02:41;97088.13;;;13.54
61977;BMP280;45905;50.570;10.428;2023-04-23T04:05:08;97085.16;;;13.45
61977;BMP280;45905;50.570;10.428;2023-04-23T04:07:38;97094.72;;;13.43
61977;BMP280;45905;50.570;10.428;2023-04-23T04:10:06;97089.03;;;13.41
61977;BMP280;45905;50.570;10.428;2023-04-23T04:12:33;97098.44;;;13.40
61977;BMP280;45905;50.570;10.428;2023-04-23T04:15:02;97101.94;;;13.39
61977;BMP280;45905;50.570;10.428;2023-04-23T04:17:29;97101.94;;;13.39
61977;BMP280;45905;50.570;10.428;2023-04-23T04:19:56;97100.41;;;13.38
61977;BMP280;45905;50.570;10.428;2023-04-23T04:22:23;97108.78;;;13.33
61977;BMP280;45905;50.570;10.428;2023-04-23T04:24:51;97103.50;;;13.34
61977;BMP280;45905;50.570;10.428;2023-04-23T04:27:18;97102.34;;;13.36
61977;BMP280;45905;50.570;10.428;2023-04-23T04:29:45;97101.19;;;13.39
61977;BMP280;45905;50.570;10.428;2023-04-23T04:32:13;97105.88;;;13.42
61977;BMP280;45905;50.570;10.428;2023-04-23T04:34:40;97107.25;;;13.44
61977;BMP280;45905;50.570;10.428;2023-04-23T04:37:08;97108.66;;;13.47
61977;BMP280;45905;50.570;10.428;2023-04-23T04:39:37;97108.25;;;13.50
61977;BMP280;45905;50.570;10.428;2023-04-23T04:42:04;97114.50;;;13.47
61977;BMP280;45905;50.570;10.428;2023-04-23T04:44:33;97119.78;;;13.46
61977;BMP280;45905;50.570;10.428;2023-04-23T04:47:05;97121.13;;;13.42
61977;BMP280;45905;50.570;10.428;2023-04-23T04:49:34;97130.50;;;13.35
61977;BMP280;45905;50.570;10.428;2023-04-23T04:52:02;97125.59;;;13.34
61977;BMP280;45905;50.570;10.428;2023-04-23T04:54:29;97134.78;;;13.28
61977;BMP280;45905;50.570;10.428;2023-04-23T04:56:56;97141.72;;;13.07
61977;BMP280;45905;50.570;10.428;2023-04-23T04:59:23;97140.47;;;12.97
61977;BMP280;45905;50.570;10.428;2023-04-23T05:01:50;97137.75;;;12.98
61977;BMP280;45905;50.570;10.428;2023-04-23T05:04:17;97133.88;;;13.02
61977;BMP280;45905;50.570;10.428;2023-04-23T05:06:44;97133.88;;;13.02
61977;BMP280;45905;50.570;10.428;2023-04-23T05:09:11;97135.22;;;12.98
61977;BMP280;45905;50.570;10.428;2023-04-23T05:11:39;97137.38;;;12.95
61977;BMP280;45905;50.570;10.428;2023-04-23T05:14:07;97146.69;;;12.88
61977;BMP280;45905;50.570;10.428;2023-04-23T05:16:34;97142.38;;;12.89
61977;BMP280;45905;50.570;10.428;2023-04-23T05:19:01;97143.56;;;12.86
61977;BMP280;45905;50.570;10.428;2023-04-23T05:21:30;97144.28;;;12.80
61977;BMP280;45905;50.570;10.428;2023-04-23T05:23:57;97144.69;;;12.78
61977;BMP280;45905;50.570;10.428;2023-04-23T05:26:24;97142.72;;;12.79
61977;BMP280;45905;50.570;10.428;2023-04-23T05:28:51;97155.59;;;12.78
61977;BMP280;45905;50.570;10.428;2023-04-23T05:31:18;97152.34;;;12.84
61977;BMP280;45905;50.570;10.428;2023-04-23T05:33:45;97150.59;;;12.84
61977;BMP280;45905;50.570;10.428;2023-04-23T05:36:17;97166.94;;;12.76
61977;BMP280;45905;50.570;10.428;2023-04-23T05:38:44;97171.59;;;12.72
61977;BMP280;45905;50.570;10.428;2023-04-23T05:41:11;97170.03;;;12.71
61977;BMP280;45905;50.570;10.428;2023-04-23T05:43:38;97172.38;;;12.73
61977;BMP280;45905;50.570;10.428;2023-04-23T05:46:06;97176.31;;;12.75
61977;BMP280;45905;50.570;10.428;2023-04-23T05:48:33;97173.59;;;12.77
61977;BMP280;45905;50.570;10.428;2023-04-23T05:51:01;97174.31;;;12.71
61977;BMP280;45905;50.570;10.428;2023-04-23T05:53:28;97170.41;;;12.68
61977;BMP280;45905;50.570;10.428;2023-04-23T05:55:55;97168.25;;;12.65
61977;BMP280;45905;50.570;10.428;2023-04-23T05:58:22;97175.06;;;12.65
61977;BMP280;45905;50.570;10.428;2023-04-23T06:00:50;97181.38;;;12.69
61977;BMP280;45905;50.570;10.428;2023-04-23T06:03:19;97185.66;;;12.68
61977;BMP280;45905;50.570;10.428;2023-04-23T06:05:46;97191.53;;;12.69
61977;BMP280;45905;50.570;10.428;2023-04-23T06:08:14;97180.19;;;12.71
61977;BMP280;45905;50.570;10.428;2023-04-23T06:10:41;97190.00;;;12.74
61977;BMP280;45905;50.570;10.428;2023-04-23T06:13:08;97182.19;;;12.76
61977;BMP280;45905;50.570;10.428;2023-04-23T06:15:36;97187.88;;;12.78
61977;BMP280;45905;50.570;10.428;2023-04-23T06:18:04;97182.59;;;12.79
61977;BMP280;45905;50.570;10.428;2023-04-23T06:20:31;97180.84;;;12.79
61977;BMP280;45905;50.570;10.428;2023-04-23T06:22:58;97191.97;;;12.78
61977;BMP280;45905;50.570;10.428;2023-04-23T06:25:26;97190.34;;;12.71
61977;BMP280;45905;50.570;10.428;2023-04-23T06:27:53;97186.44;;;12.69
61977;BMP280;45905;50.570;10.428;2023-04-23T06:30:23;97194.25;;;12.67
61977;BMP280;45905;50.570;10.428;2023-04-23T06:32:51;97178.22;;;12.67
61977;BMP280;45905;50.570;10.428;2023-04-23T06:35:19;97192.50;;;12.68
61977;BMP280;45905;50.570;10.428;2023-04-23T06:37:46;97200.13;;;12.68
61977;BMP280;45905;50.570;10.428;2023-04-23T06:40:13;97197.38;;;12.69
61977;BMP280;45905;50.570;10.428;2023-04-23T06:42:41;97196.22;;;12.72
61977;BMP280;45905;50.570;10.428;2023-04-23T06:45:16;97191.56;;;12.75
61977;BMP280;45905;50.570;10.428;2023-04-23T06:47:43;97192.56;;;12.80
61977;BMP280;45905;50.570;10.428;2023-04-23T06:50:11;97185.38;;;12.84
61977;BMP280;45905;50.570;10.428;2023-04-23T06:52:38;97194.59;;;12.85
61977;BMP280;45905;50.570;10.428;2023-04-23T06:55:06;97189.31;;;12.86
61977;BMP280;45905;50.570;10.428;2023-04-23T06:57:33;97191.25;;;12.84
61977;BMP280;45905;50.570;10.428;2023-04-23T07:00:02;97196.50;;;12.83
61977;BMP280;45905;50.570;10.428;2023-04-23T07:02:36;97191.25;;;12.84
61977;BMP280;45905;50.570;10.428;2023-04-23T07:05:04;97194.41;;;12.86
61977;BMP280;45905;50.570;10.428;2023-04-23T07:07:31;97195.38;;;12.85
61977;BMP280;45905;50.570;10.428;2023-04-23T07:09:58;97203.00;;;12.85
61977;BMP280;45905;50.570;10.428;2023-04-23T07:12:26;97201.81;;;12.88
61977;BMP280;45905;50.570;10.428;2023-04-23T07:14:53;97199.88;;;12.90
61977;BMP280;45905;50.570;10.428;2023-04-23T07:17:20;97195.22;;;12.93
61977;BMP280;45905;50.570;10.428;2023-04-23T07:19:47;97184.09;;;12.94
61977;BMP280;45905;50.570;10.428;2023-04-23T07:22:14;97193.84;;;12.97
61977;BMP280;45905;50.570;10.428;2023-04-23T07:24:42;97192.88;;;12.98
61977;BMP280;45905;50.570;10.428;2023-04-23T07:27:09;97176.84;;;12.97
61977;BMP280;45905;50.570;10.428;2023-04-23T07:29:36;97176.31;;;13.02
61977;BMP280;45905;50.570;10.428;2023-04-23T07:32:04;97191.97;;;13.05
61977;BMP280;45905;50.570;10.428;2023-04-23T07:34:31;97199.97;;;13.02
61977;BMP280;45905;50.570;10.428;2023-04-23T07:36:58;97187.28;;;13.09
61977;BMP280;45905;50.570;10.428;2023-04-23T07:39:25;97187.50;;;13.14
61977;BMP280;45905;50.570;10.428;2023-04-23T07:41:52;97180.47;;;13.16
61977;BMP280;45905;50.570;10.428;2023-04-23T07:44:19;97184.84;;;13.21
61977;BMP280;45905;50.570;10.428;2023-04-23T07:46:47;97183.28;;;13.27
61977;BMP280;45905;50.570;10.428;2023-04-23T07:49:14;97180.38;;;13.30
61977;BMP280;45905;50.570;10.428;2023-04-23T07:51:41;97176.66;;;13.32
61977;BMP280;45905;50.570;10.428;2023-04-23T07:54:09;97186.66;;;13.40
61977;BMP280;45905;50.570;10.428;2023-04-23T07:56:36;97182.78;;;13.44
61977;BMP280;45905;50.570;10.428;2023-04-23T07:59:03;97177.13;;;13.48
61977;BMP280;45905;50.570;10.428;2023-04-23T08:01:32;97184.56;;;13.50
61977;BMP280;45905;50.570;10.428;2023-04-23T08:04:00;97184.19;;;13.53
61977;BMP280;45905;50.570;10.428;2023-04-23T08:06:29;97172.28;;;13.59
61977;BMP280;45905;50.570;10.428;2023-04-23T08:08:57;97174.84;;;13.66
61977;BMP280;45905;50.570;10.428;2023-04-23T08:11:24;97177.78;;;13.69
61977;BMP280;45905;50.570;10.428;2023-04-23T08:13:51;97173.50;;;13.76
61977;BMP280;45905;50.570;10.428;2023-04-23T08:16:18;97171.41;;;13.86
61977;BMP280;45905;50.570;10.428;2023-04-23T08:18:46;97164.00;;;13.91
61977;BMP280;45905;50.570;10.428;2023-04-23T08:21:32;97158.50;;;13.93
61977;BMP280;45905;50.570;10.428;2023-04-23T08:24:00;97158.72;;;13.98
61977;BMP280;45905;50.570;10.428;2023-04-23T08:26:29;97151.88;;;14.05
61977;BMP280;45905;50.570;10.428;2023-04-23T08:28:57;97152.66;;;14.12
61977;BMP280;45905;50.570;10.428;2023-04-23T08:31:26;97143.66;;;14.22
61977;BMP280;45905;50.570;10.428;2023-04-23T08:33:54;97139.34;;;14.29
61977;BMP280;45905;50.570;10.428;2023-04-23T08:36:22;97146.81;;;14.31
61977;BMP280;45905;50.570;10.428;2023-04-23T08:38:49;97158.19;;;14.34
61977;BMP280;45905;50.570;10.428;2023-04-23T08:41:17;97152.69;;;14.37
61977;BMP280;45905;50.570;10.428;2023-04-23T08:44:40;97156.41;;;14.41
61977;BMP280;45905;50.570;10.428;2023-04-23T08:46:47;97154.06;;;14.46
61977;BMP280;45905;50.570;10.428;2023-04-23T08:49:17;97145.63;;;14.46
61977;BMP280;45905;50.570;10.428;2023-04-23T08:51:54;97142.13;;;14.53
61977;BMP280;45905;50.570;10.428;2023-04-23T08:54:31;97149.75;;;14.59
61977;BMP280;45905;50.570;10.428;2023-04-23T08:56:59;97135.44;;;14.65
61977;BMP280;45905;50.570;10.428;2023-04-23T08:59:30;97134.44;;;14.72
61977;BMP280;45905;50.570;10.428;2023-04-23T09:02:01;97135.44;;;14.77
61977;BMP280;45905;50.570;10.428;2023-04-23T09:04:35;97139.72;;;14.83
61977;BMP280;45905;50.570;10.428;2023-04-23T09:07:03;97138.72;;;14.90
61977;BMP280;45905;50.570;10.428;2023-04-23T09:09:32;97142.84;;;14.98
61977;BMP280;45905;50.570;10.428;2023-04-23T09:12:00;97147.72;;;15.06
61977;BMP280;45905;50.570;10.428;2023-04-23T09:14:27;97146.97;;;15.11
61977;BMP280;45905;50.570;10.428;2023-04-23T09:16:55;97145.16;;;15.18
61977;BMP280;45905;50.570;10.428;2023-04-23T09:19:26;97130.63;;;15.25
61977;BMP280;45905;50.570;10.428;2023-04-23T09:21:59;97137.84;;;15.34
61977;BMP280;45905;50.570;10.428;2023-04-23T09:24:29;97134.88;;;15.44
61977;BMP280;45905;50.570;10.428;2023-04-23T09:26:57;97133.28;;;15.49
61977;BMP280;45905;50.570;10.428;2023-04-23T09:29:25;97134.63;;;15.51
61977;BMP280;45905;50.570;10.428;2023-04-23T09:32:09;97132.09;;;15.51
61977;BMP280;45905;50.570;10.428;2023-04-23T09:34:36;97131.72;;;15.48
61977;BMP280;45905;50.570;10.428;2023-04-23T09:37:05;97134.84;;;15.50
61977;BMP280;45905;50.570;10.428;2023-04-23T09:39:38;97139.34;;;15.54
61977;BMP280;45905;50.570;10.428;2023-04-23T09:42:06;97130.84;;;15.60
61977;BMP280;45905;50.570;10.428;2023-04-23T09:44:35;97128.69;;;15.64
61977;BMP280;45905;50.570;10.428;2023-04-23T09:47:11;97132.81;;;15.65
61977;BMP280;45905;50.570;10.428;2023-04-23T09:49:46;97133.59;;;15.65
61977;BMP280;45905;50.570;10.428;2023-04-23T09:52:14;97130.84;;;15.66
61977;BMP280;45905;50.570;10.428;2023-04-23T09:54:42;97120.22;;;15.69
61977;BMP280;45905;50.570;10.428;2023-04-23T09:57:12;97127.28;;;15.74
61977;BMP280;45905;50.570;10.428;2023-04-23T09:59:39;97122.72;;;15.76
61977;BMP280;45905;50.570;10.428;2023-04-23T10:02:17;97125.28;;;15.76
61977;BMP280;45905;50.570;10.428;2023-04-23T10:04:50;97131.75;;;15.78
61977;BMP280;45905;50.570;10.428;2023-04-23T10:07:26;97130.53;;;15.87
61977;BMP280;45905;50.570;10.428;2023-04-23T10:09:55;97126.16;;;15.94
61977;BMP280;45905;50.570;10.428;2023-04-23T10:12:22;97118.72;;;15.92
61977;BMP280;45905;50.570;10.428;2023-04-23T10:14:52;97124.00;;;15.97
61977;BMP280;45905;50.570;10.428;2023-04-23T10:17:23;97106.28;;;16.02
61977;BMP280;45905;50.570;10.428;2023-04-23T10:19:51;97102.53;;;16.04
61977;BMP280;45905;50.570;10.428;2023-04-23T10:22:20;97113.53;;;16.05
61977;BMP280;45905;50.570;10.428;2023-04-23T10:24:52;97100.97;;;16.03
61977;BMP280;45905;50.570;10.428;2023-04-23T10:27:28;97097.63;;;16.09
61977;BMP280;45905;50.570;10.428;2023-04-23T10:30:15;97096.38;;;16.12
61977;BMP280;45905;50.570;10.428;2023-04-23T10:32:43;97094.06;;;16.10
61977;BMP280;45905;50.570;10.428;2023-04-23T10:35:11;97099.94;;;16.11
61977;BMP280;45905;50.570;10.428;2023-04-23T10:37:39;97099.19;;;16.10
61977;BMP280;45905;50.570;10.428;2023-04-23T10:40:13;97094.41;;;16.14
61977;BMP280;45905;50.570;10.428;2023-04-23T10:42:43;97104.63;;;16.14
61977;BMP280;45905;50.570;10.428;2023-04-23T10:45:17;97099.19;;;16.10
61977;BMP280;45905;50.570;10.428;2023-04-23T10:47:47;97099.00;;;16.05
61977;BMP280;45905;50.570;10.428;2023-04-23T10:50:29;97093.31;;;16.03
61977;BMP280;45905;50.570;10.428;2023-04-23T10:52:56;97081.50;;;16.09
61977;BMP280;45905;50.570;10.428;2023-04-23T10:55:27;97075.13;;;16.18
61977;BMP280;45905;50.570;10.428;2023-04-23T10:58:00;97074.81;;;16.32
61977;BMP280;45905;50.570;10.428;2023-04-23T11:03:39;97068.84;;;16.61
61977;BMP280;45905;50.570;10.428;2023-04-23T11:12:00;97070.28;;;16.75
61977;BMP280;45905;50.570;10.428;2023-04-23T11:17:12;97060.13;;;16.86
61977;BMP280;45905;50.570;10.428;2023-04-23T11:22:37;97058.94;;;17.06
61977;BMP280;45905;50.570;10.428;2023-04-23T11:25:22;97065.88;;;17.17
61977;BMP280;45905;50.570;10.428;2023-04-23T11:27:52;97061.75;;;17.34
61977;BMP280;45905;50.570;10.428;2023-04-23T11:30:26;97060.19;;;17.33
61977;BMP280;45905;50.570;10.428;2023-04-23T11:32:56;97055.22;;;17.38
61977;BMP280;45905;50.570;10.428;2023-04-23T11:35:26;97039.53;;;17.45
61977;BMP280;45905;50.570;10.428;2023-04-23T11:37:55;97030.56;;;17.54
61977;BMP280;45905;50.570;10.428;2023-04-23T11:40:23;97030.94;;;17.69
61977;BMP280;45905;50.570;10.428;2023-04-23T11:42:52;97026.50;;;17.76
61977;BMP280;45905;50.570;10.428;2023-04-23T11:45:26;97018.59;;;17.77
61977;BMP280;45905;50.570;10.428;2023-04-23T11:47:59;97021.22;;;17.88
61977;BMP280;45905;50.570;10.428;2023-04-23T11:50:31;97016.75;;;17.95
61977;BMP280;45905;50.570;10.428;2023-04-23T11:53:08;97003.31;;;17.99
61977;BMP280;45905;50.570;10.428;2023-04-23T11:55:36;97006.53;;;18.06
61977;BMP280;45905;50.570;10.428;2023-04-23T11:58:10;97015.69;;;18.02
61977;BMP280;45905;50.570;10.428;2023-04-23T12:00:37;97008.66;;;18.09
61977;BMP280;45905;50.570;10.428;2023-04-23T12:03:05;97010.22;;;18.10
61977;BMP280;45905;50.570;10.428;2023-04-23T12:05:38;97003.06;;;18.12
61977;BMP280;45905;50.570;10.428;2023-04-23T12:08:16;97010.31;;;18.15
61977;BMP280;45905;50.570;10.428;2023-04-23T12:10:53;97007.66;;;18.10
61977;BMP280;45905;50.570;10.428;2023-04-23T12:13:27;97002.31;;;18.12
61977;BMP280;45905;50.570;10.428;2023-04-23T12:16:02;97003.41;;;18.15
61977;BMP280;45905;50.570;10.428;2023-04-23T12:18:32;97010.69;;;18.18
61977;BMP280;45905;50.570;10.428;2023-04-23T12:21:13;97006.13;;;18.20
61977;BMP280;45905;50.570;10.428;2023-04-23T12:23:42;97004.78;;;18.18
61977;BMP280;45905;50.570;10.428;2023-04-23T12:26:14;96993.59;;;18.13
61977;BMP280;45905;50.570;10.428;2023-04-23T12:28:59;96992.59;;;18.14
61977;BMP280;45905;50.570;10.428;2023-04-23T12:31:28;96992.38;;;18.15
61977;BMP280;45905;50.570;10.428;2023-04-23T12:34:08;97005.97;;;18.15
61977;BMP280;45905;50.570;10.428;2023-04-23T12:36:37;96993.50;;;18.19
61977;BMP280;45905;50.570;10.428;2023-04-23T12:41:54;96990.63;;;18.27
61977;BMP280;45905;50.570;10.428;2023-04-23T12:44:22;96987.50;;;18.25
61977;BMP280;45905;50.570;10.428;2023-04-23T12:46:55;96984.81;;;18.20
61977;BMP280;45905;50.570;10.428;2023-04-23T12:49:25;96984.47;;;18.16
61977;BMP280;45905;50.570;10.428;2023-04-23T12:51:56;96984.25;;;18.07
61977;BMP280;45905;50.570;10.428;2023-04-23T12:54:35;96975.91;;;18.00
61977;BMP280;45905;50.570;10.428;2023-04-23T12:57:09;96976.22;;;17.92
61977;BMP280;45905;50.570;10.428;2023-04-23T12:59:37;96974.22;;;17.94
61977;BMP280;45905;50.570;10.428;2023-04-23T13:02:04;96970.78;;;18.00
61977;BMP280;45905;50.570;10.428;2023-04-23T13:04:34;96965.53;;;18.06
61977;BMP280;45905;50.570;10.428;2023-04-23T13:07:02;96953.63;;;18.12
61977;BMP280;45905;50.570;10.428;2023-04-23T13:09:30;96944.59;;;18.20
61977;BMP280;45905;50.570;10.428;2023-04-23T13:11:57;96938.78;;;18.36
61977;BMP280;45905;50.570;10.428;2023-04-23T13:14:26;96939.19;;;18.55
61977;BMP280;45905;50.570;10.428;2023-04-23T13:16:54;96933.59;;;18.70
61977;BMP280;45905;50.570;10.428;2023-04-23T13:19:21;96931.81;;;18.81
61977;BMP280;45905;50.570;10.428;2023-04-23T13:21:48;96923.38;;;18.97
61977;BMP280;45905;50.570;10.428;2023-04-23T13:24:15;96911.59;;;19.12
61977;BMP280;45905;50.570;10.428;2023-04-23T13:26:42;96905.69;;;19.28
61977;BMP280;45905;50.570;10.428;2023-04-23T13:29:10;96888.28;;;19.46
61977;BMP280;45905;50.570;10.428;2023-04-23T13:31:38;96888.25;;;19.57
61977;BMP280;45905;50.570;10.428;2023-04-23T13:34:05;96873.44;;;19.64
61977;BMP280;45905;50.570;10.428;2023-04-23T13:36:32;96879.44;;;19.85
61977;BMP280;45905;50.570;10.428;2023-04-23T13:38:59;96867.09;;;20.03
61977;BMP280;45905;50.570;10.428;2023-04-23T13:41:26;96861.31;;;20.12
61977;BMP280;45905;50.570;10.428;2023-04-23T13:43:53;96865.03;;;20.21
61977;BMP280;45905;50.570;10.428;2023-04-23T13:46:21;96855.38;;;20.33
61977;BMP280;45905;50.570;10.428;2023-04-23T13:48:48;96844.44;;;20.37
61977;BMP280;45905;50.570;10.428;2023-04-23T13:51:16;96856.09;;;20.45
61977;BMP280;45905;50.570;10.428;2023-04-23T13:54:00;96853.53;;;20.45
61977;BMP280;45905;50.570;10.428;2023-04-23T13:56:27;96851.81;;;20.34
61977;BMP280;45905;50.570;10.428;2023-04-23T13:58:56;96846.63;;;20.29
61977;BMP280;45905;50.570;10.428;2023-04-23T14:01:32;96838.00;;;20.40
61977;BMP280;45905;50.570;10.428;2023-04-23T14:04:00;96832.75;;;20.51
61977;BMP280;45905;50.570;10.428;2023-04-23T14:06:30;96831.31;;;20.60
61977;BMP280;45905;50.570;10.428;2023-04-23T14:08:57;96829.06;;;20.68
61977;BMP280;45905;50.570;10.428;2023-04-23T14:11:25;96829.16;;;20.73
61977;BMP280;45905;50.570;10.428;2023-04-23T14:13:52;96823.22;;;20.72
61977;BMP280;45905;50.570;10.428;2023-04-23T14:16:19;96821.94;;;20.75
61977;BMP280;45905;50.570;10.428;2023-04-23T14:18:47;96825.78;;;20.72
61977;BMP280;45905;50.570;10.428;2023-04-23T14:21:15;96822.38;;;20.67
61977;BMP280;45905;50.570;10.428;2023-04-23T14:29:28;96816.41;;;20.20